Time;durP1;ratioP1;P1;durP2;ratioP2;P2;SDS_P1;SDS_P2;PMS_P1;PMS_P2;Temp;Humidity;BMP_temperature;BMP_pressure;BME280_temperature;BME280_humidity;BME280_pressure;Samples;Min_cycle;Max_cycle;Signal;HPM_P1;HPM_P2
2021/07/01 00:00:22;;;;;;;4.80;2.60;;;10.60;98.00;;;;;;5058713;28;20044;-88
2021/07/01 00:02:48;;;;;;;4.70;2.45;;;10.60;98.00;;;;;;5044683;28;20057;-87
2021/07/01 00:05:15;;;;;;;5.55;2.58;;;10.60;98.00;;;;;;5055828;28;20041;-87
2021/07/01 00:07:43;;;;;;;5.35;2.35;;;10.60;98.00;;;;;;5042557;28;20037;-87
2021/07/01 00:10:15;;;;;;;4.35;2.33;;;10.60;98.00;;;;;;5043062;28;20025;-87
2021/07/01 00:12:40;;;;;;;4.15;2.00;;;10.60;98.00;;;;;;5043235;28;20025;-88
2021/07/01 00:15:09;;;;;;;4.95;2.22;;;10.60;98.00;;;;;;5038683;28;20024;-90
2021/07/01 00:17:35;;;;;;;4.78;2.42;;;10.70;98.00;;;;;;5052337;28;20021;-91
2021/07/01 00:20:05;;;;;;;8.38;2.55;;;10.70;98.00;;;;;;5056226;28;20025;-89
2021/07/01 00:22:30;;;;;;;3.80;2.15;;;10.70;98.00;;;;;;5052889;28;20025;-89
2021/07/01 00:24:56;;;;;;;5.07;2.55;;;10.60;98.00;;;;;;5037933;28;20026;-91
2021/07/01 00:27:22;;;;;;;4.53;2.72;;;10.70;98.00;;;;;;5045134;28;20026;-89
2021/07/01 00:29:47;;;;;;;3.47;1.83;;;10.70;98.00;;;;;;5046535;28;20021;-89
2021/07/01 00:32:13;;;;;;;3.88;2.15;;;10.70;98.00;;;;;;5047404;28;20148;-89
2021/07/01 00:34:39;;;;;;;3.95;2.22;;;10.70;98.00;;;;;;5050901;28;20314;-89
2021/07/01 00:37:05;;;;;;;3.80;2.28;;;10.70;98.00;;;;;;5043855;28;20025;-89
2021/07/01 00:39:31;;;;;;;4.38;2.50;;;10.70;98.00;;;;;;5037186;28;20036;-88
2021/07/01 00:41:56;;;;;;;4.35;2.25;;;10.70;98.00;;;;;;5047227;28;20449;-88
2021/07/01 00:44:22;;;;;;;3.55;2.10;;;10.70;98.00;;;;;;5041677;28;20045;-89
2021/07/01 00:46:48;;;;;;;3.22;1.92;;;10.80;98.00;;;;;;5052125;28;20036;-90
2021/07/01 00:49:14;;;;;;;4.00;2.13;;;10.80;98.00;;;;;;5047146;28;20444;-89
2021/07/01 00:51:40;;;;;;;3.63;2.00;;;10.80;98.00;;;;;;5048157;28;20029;-89
2021/07/01 00:54:06;;;;;;;4.32;2.00;;;10.80;98.00;;;;;;5038241;28;20076;-88
2021/07/01 00:56:37;;;;;;;3.40;2.00;;;10.80;98.00;;;;;;5046843;28;20329;-88
2021/07/01 00:59:04;;;;;;;3.83;2.03;;;10.80;98.00;;;;;;5040751;28;20051;-88
2021/07/01 01:01:30;;;;;;;4.05;2.50;;;10.80;98.00;;;;;;5045247;28;20422;-88
2021/07/01 01:03:56;;;;;;;3.60;1.95;;;10.80;98.00;;;;;;5046304;28;20056;-87
2021/07/01 01:06:22;;;;;;;5.05;2.47;;;10.80;98.00;;;;;;5047499;28;20025;-88
2021/07/01 01:08:48;;;;;;;5.07;2.63;;;10.80;98.00;;;;;;5036867;28;20030;-87
2021/07/01 01:11:15;;;;;;;4.53;2.58;;;10.80;98.00;;;;;;5053992;28;20367;-88
2021/07/01 01:13:48;;;;;;;4.22;2.38;;;10.80;98.00;;;;;;5045490;28;20028;-89
2021/07/01 01:16:14;;;;;;;4.75;2.72;;;10.80;98.00;;;;;;5050551;28;20119;-89
2021/07/01 01:18:40;;;;;;;5.57;2.50;;;10.80;98.00;;;;;;5041991;28;20125;-88
2021/07/01 01:21:11;;;;;;;4.50;2.55;;;10.80;98.00;;;;;;5042100;28;20029;-89
2021/07/01 01:23:36;;;;;;;4.35;2.67;;;10.80;98.00;;;;;;5047244;28;20025;-88
2021/07/01 01:26:02;;;;;;;8.95;2.60;;;10.70;98.00;;;;;;5036337;28;20033;-88
2021/07/01 01:28:29;;;;;;;4.57;2.60;;;10.70;98.00;;;;;;5054818;28;20021;-90
2021/07/01 01:30:55;;;;;;;5.55;2.45;;;10.80;98.00;;;;;;5053304;28;20021;-87
2021/07/01 01:33:20;;;;;;;5.45;2.55;;;10.80;98.00;;;;;;5043591;28;20029;-88
2021/07/01 01:35:49;;;;;;;3.90;2.17;;;10.70;98.00;;;;;;5041321;28;20055;-88
2021/07/01 01:38:16;;;;;;;4.50;2.63;;;10.70;98.00;;;;;;5052539;28;20036;-84
2021/07/01 01:40:44;;;;;;;4.15;2.30;;;10.70;98.00;;;;;;5044102;28;20036;-88
2021/07/01 01:43:12;;;;;;;4.65;2.35;;;10.80;98.00;;;;;;5055601;28;20025;-88
2021/07/01 01:45:39;;;;;;;4.70;2.15;;;10.80;98.00;;;;;;5040815;28;20072;-88
2021/07/01 01:48:05;;;;;;;4.53;2.42;;;10.80;98.00;;;;;;5042286;28;20029;-89
2021/07/01 01:50:31;;;;;;;3.70;2.22;;;10.80;98.00;;;;;;5047464;28;20025;-87
2021/07/01 01:52:57;;;;;;;3.88;2.17;;;10.80;98.00;;;;;;5054569;28;20139;-88
2021/07/01 01:55:22;;;;;;;3.78;2.10;;;10.80;98.00;;;;;;5042569;28;20038;-87
2021/07/01 01:57:50;;;;;;;4.10;2.20;;;10.80;98.00;;;;;;5048711;28;20063;-86
2021/07/01 02:00:21;;;;;;;4.15;2.40;;;10.80;98.00;;;;;;5048222;28;20034;-89
2021/07/01 02:02:47;;;;;;;5.70;2.38;;;10.80;98.00;;;;;;5034936;28;20029;-88
2021/07/01 02:05:13;;;;;;;4.15;2.10;;;10.90;98.00;;;;;;5047512;28;20417;-87
2021/07/01 02:07:40;;;;;;;3.40;2.13;;;10.90;98.00;;;;;;5046722;28;20053;-88
2021/07/01 02:10:09;;;;;;;4.40;2.47;;;10.90;98.00;;;;;;5046673;28;20029;-88
2021/07/01 02:12:35;;;;;;;4.80;2.20;;;10.90;98.00;;;;;;5048390;28;20064;-88
2021/07/01 02:15:03;;;;;;;3.95;2.33;;;10.80;98.00;;;;;;5046625;28;20021;-88
2021/07/01 02:17:29;;;;;;;4.07;2.30;;;10.80;98.00;;;;;;5041796;28;20029;-88
2021/07/01 02:19:55;;;;;;;3.90;2.13;;;10.80;98.00;;;;;;5047914;28;20086;-88
2021/07/01 02:22:20;;;;;;;3.53;2.05;;;10.90;98.00;;;;;;5053231;28;20108;-88
2021/07/01 02:24:46;;;;;;;3.70;2.30;;;10.90;98.00;;;;;;5046516;28;20044;-88
2021/07/01 02:27:12;;;;;;;4.25;2.08;;;11.00;98.00;;;;;;5046469;28;20060;-88
2021/07/01 02:29:40;;;;;;;4.05;2.13;;;11.00;98.00;;;;;;5048858;28;20334;-89
2021/07/01 02:32:07;;;;;;;3.75;2.25;;;11.00;98.00;;;;;;5051892;28;20036;-88
2021/07/01 02:34:32;;;;;;;4.35;2.55;;;11.00;98.00;;;;;;5046050;28;20025;-88
2021/07/01 02:36:58;;;;;;;3.90;2.28;;;11.00;98.00;;;;;;5045871;28;20154;-87
2021/07/01 02:39:24;;;;;;;4.45;2.30;;;11.00;98.00;;;;;;5048291;28;20064;-88
2021/07/01 02:41:49;;;;;;;5.15;2.35;;;11.00;98.00;;;;;;5040845;28;20373;-87
2021/07/01 02:44:15;;;;;;;3.97;2.13;;;11.00;98.00;;;;;;5034943;28;20049;-88
2021/07/01 02:46:44;;;;;;;4.53;2.50;;;11.10;98.00;;;;;;5038079;28;20459;-87
2021/07/01 02:49:10;;;;;;;4.25;2.45;;;11.10;98.00;;;;;;5053258;28;20017;-88
2021/07/01 02:51:35;;;;;;;4.97;2.40;;;11.10;98.00;;;;;;5034485;28;20039;-86
2021/07/01 02:54:01;;;;;;;4.43;2.63;;;11.10;98.00;;;;;;5038413;28;20024;-86
2021/07/01 02:56:39;;;;;;;7.90;2.45;;;11.10;98.00;;;;;;5043798;28;20099;-86
2021/07/01 02:59:05;;;;;;;7.07;2.70;;;11.10;98.00;;;;;;5053989;28;20035;-85
2021/07/01 03:01:31;;;;;;;4.28;2.33;;;11.10;98.00;;;;;;5052460;28;20028;-86
2021/07/01 03:03:56;;;;;;;5.60;2.45;;;11.20;98.00;;;;;;5048242;28;20022;-87
2021/07/01 03:06:22;;;;;;;6.47;2.38;;;11.20;98.00;;;;;;5052266;28;20035;-86
2021/07/01 03:08:48;;;;;;;4.05;2.60;;;11.20;98.00;;;;;;5042126;28;20053;-86
2021/07/01 03:11:13;;;;;;;4.47;2.55;;;11.20;98.00;;;;;;5035888;28;20080;-88
2021/07/01 03:13:39;;;;;;;3.97;2.33;;;11.20;98.00;;;;;;5038918;28;20100;-87
2021/07/01 03:16:04;;;;;;;4.57;2.25;;;11.30;98.00;;;;;;5052416;28;20302;-87
2021/07/01 03:18:30;;;;;;;4.00;2.17;;;11.30;98.00;;;;;;5036369;28;20025;-86
2021/07/01 03:20:56;;;;;;;4.80;2.80;;;11.30;98.00;;;;;;5047287;28;20026;-86
2021/07/01 03:23:21;;;;;;;7.57;2.92;;;11.30;98.00;;;;;;5045743;28;20033;-86
2021/07/01 03:25:47;;;;;;;5.07;2.92;;;11.30;98.00;;;;;;5042281;28;20077;-85
2021/07/01 03:28:13;;;;;;;5.43;2.78;;;11.30;98.00;;;;;;5054304;28;20104;-85
2021/07/01 03:30:38;;;;;;;5.93;2.63;;;11.20;98.00;;;;;;5044381;28;20028;-85
2021/07/01 03:33:04;;;;;;;5.38;3.28;;;11.30;98.00;;;;;;5052740;28;20071;-85
2021/07/01 03:35:29;;;;;;;6.60;3.20;;;11.20;98.00;;;;;;5052669;28;20063;-85
2021/07/01 03:37:55;;;;;;;5.28;2.90;;;11.20;98.00;;;;;;5050353;28;20022;-85
2021/07/01 03:40:21;;;;;;;6.80;3.28;;;11.30;98.00;;;;;;5040929;28;20059;-87
2021/07/01 03:42:46;;;;;;;5.28;2.65;;;11.30;98.00;;;;;;5047112;28;20198;-85
2021/07/01 03:45:12;;;;;;;4.63;2.97;;;11.30;98.00;;;;;;5047554;28;20074;-85
2021/07/01 03:47:38;;;;;;;5.53;3.13;;;11.30;98.00;;;;;;5054853;28;20337;-86
2021/07/01 03:50:04;;;;;;;4.45;2.65;;;11.30;98.00;;;;;;5061748;28;20039;-84
2021/07/01 03:52:30;;;;;;;6.35;3.40;;;11.30;98.00;;;;;;5045694;28;20022;-85
2021/07/01 03:54:56;;;;;;;6.05;3.25;;;11.30;98.00;;;;;;5056768;28;20013;-84
2021/07/01 03:57:21;;;;;;;4.70;3.13;;;11.30;98.00;;;;;;5052148;28;20033;-85
2021/07/01 03:59:47;;;;;;;5.60;3.00;;;11.30;98.00;;;;;;5052027;28;20417;-85
2021/07/01 04:02:13;;;;;;;6.25;3.40;;;11.30;98.00;;;;;;5043949;28;20373;-85
2021/07/01 04:04:38;;;;;;;5.15;3.10;;;11.40;98.00;;;;;;5052160;28;20056;-85
2021/07/01 04:07:05;;;;;;;4.80;2.95;;;11.40;98.00;;;;;;5073217;28;20032;-84
2021/07/01 04:09:31;;;;;;;5.93;3.10;;;11.40;98.00;;;;;;5048113;28;20089;-85
2021/07/01 04:11:57;;;;;;;5.53;3.20;;;11.40;98.00;;;;;;5055522;28;20044;-85
2021/07/01 04:14:22;;;;;;;5.05;2.97;;;11.40;98.00;;;;;;5056408;28;20139;-84
2021/07/01 04:16:48;;;;;;;5.15;2.75;;;11.50;98.00;;;;;;5073955;28;20032;-85
2021/07/01 04:19:14;;;;;;;6.30;3.58;;;11.50;98.00;;;;;;5051447;28;20026;-85
2021/07/01 04:21:40;;;;;;;5.65;3.17;;;11.60;98.00;;;;;;5048367;28;20040;-84
2021/07/01 04:24:05;;;;;;;5.88;3.25;;;11.60;98.00;;;;;;5052245;28;20021;-85
2021/07/01 04:26:32;;;;;;;5.28;3.17;;;11.70;98.00;;;;;;5059857;28;20033;-84
2021/07/01 04:28:57;;;;;;;5.10;2.95;;;11.70;98.00;;;;;;5058628;28;20035;-84
2021/07/01 04:31:23;;;;;;;5.45;3.20;;;11.70;98.00;;;;;;5061585;28;20021;-85
2021/07/01 04:33:49;;;;;;;6.97;3.30;;;11.70;98.00;;;;;;5065713;28;20055;-84
2021/07/01 04:36:15;;;;;;;4.75;2.88;;;11.70;98.00;;;;;;5059761;28;20036;-85
2021/07/01 04:38:41;;;;;;;6.07;3.40;;;11.70;98.00;;;;;;5054539;28;21529;-85
2021/07/01 04:41:06;;;;;;;5.03;2.90;;;11.80;98.00;;;;;;5063643;28;20032;-85
2021/07/01 04:43:33;;;;;;;5.40;3.47;;;11.80;98.00;;;;;;5051213;28;20375;-85
2021/07/01 04:45:58;;;;;;;5.25;3.35;;;11.80;98.00;;;;;;5058975;28;20029;-85
2021/07/01 04:48:24;;;;;;;5.88;3.25;;;11.80;98.00;;;;;;5058912;28;20348;-85
2021/07/01 04:50:49;;;;;;;6.55;3.45;;;11.80;98.00;;;;;;5073221;28;20065;-85
2021/07/01 04:53:15;;;;;;;5.60;3.00;;;11.80;98.00;;;;;;5062731;28;20107;-84
2021/07/01 04:55:41;;;;;;;8.90;3.38;;;11.90;98.00;;;;;;5054899;28;20025;-84
2021/07/01 04:58:09;;;;;;;6.07;3.50;;;11.90;98.00;;;;;;5053749;28;20322;-85
2021/07/01 05:00:35;;;;;;;6.35;2.95;;;11.90;98.00;;;;;;5048614;28;20079;-85
2021/07/01 05:03:02;;;;;;;6.90;3.20;;;12.00;98.00;;;;;;5052157;28;20045;-84
2021/07/01 05:05:28;;;;;;;6.38;3.58;;;12.00;98.00;;;;;;5051719;28;20087;-85
2021/07/01 05:07:53;;;;;;;5.18;3.10;;;12.00;98.00;;;;;;5050142;28;20037;-85
2021/07/01 05:10:19;;;;;;;6.93;3.53;;;12.00;98.00;;;;;;5042016;28;20105;-85
2021/07/01 05:12:45;;;;;;;5.20;3.40;;;12.00;98.00;;;;;;5047660;28;20043;-85
2021/07/01 05:15:11;;;;;;;5.60;3.28;;;12.00;98.00;;;;;;5042778;28;20402;-85
2021/07/01 05:17:37;;;;;;;5.72;3.45;;;12.10;98.00;;;;;;5034789;28;20095;-85
2021/07/01 05:20:07;;;;;;;5.32;3.30;;;12.10;98.00;;;;;;5044208;28;20095;-85
2021/07/01 05:22:33;;;;;;;5.75;3.30;;;12.10;98.00;;;;;;5038586;28;20029;-85
2021/07/01 05:24:59;;;;;;;6.22;3.45;;;12.20;98.00;;;;;;5056241;28;20017;-85
2021/07/01 05:27:25;;;;;;;4.97;3.33;;;12.20;98.00;;;;;;5054745;28;20099;-85
2021/07/01 05:29:51;;;;;;;6.60;3.67;;;12.20;98.00;;;;;;5036708;28;20029;-86
2021/07/01 05:32:18;;;;;;;6.45;3.78;;;12.30;98.00;;;;;;5035539;28;20329;-85
2021/07/01 05:34:44;;;;;;;6.63;3.45;;;12.30;98.00;;;;;;5037472;28;20402;-86
2021/07/01 05:37:10;;;;;;;5.90;3.28;;;12.30;98.00;;;;;;5054238;28;20082;-86
2021/07/01 05:39:36;;;;;;;8.13;3.45;;;12.20;98.00;;;;;;5055594;28;20440;-84
2021/07/01 05:42:01;;;;;;;5.85;3.75;;;12.20;98.00;;;;;;5041763;28;20037;-85
2021/07/01 05:44:27;;;;;;;6.10;3.58;;;12.30;98.00;;;;;;5034469;28;20057;-85
2021/07/01 05:46:53;;;;;;;6.63;3.65;;;12.30;98.00;;;;;;5046919;28;20060;-85
2021/07/01 05:49:18;;;;;;;7.85;3.78;;;12.30;98.00;;;;;;5053344;28;20028;-85
2021/07/01 05:51:46;;;;;;;7.20;3.80;;;12.40;98.00;;;;;;5053733;28;20344;-85
2021/07/01 05:56:37;;;;;;;7.53;4.07;;;12.50;98.00;;;;;;5046107;28;20124;-84
2021/07/01 05:59:07;;;;;;;6.13;3.60;;;12.60;98.00;;;;;;5043861;28;20048;-83
2021/07/01 06:01:35;;;;;;;6.30;3.55;;;12.70;98.00;;;;;;5048234;28;20029;-85
2021/07/01 06:04:08;;;;;;;8.52;4.20;;;12.60;98.00;;;;;;5053409;28;20040;-86
2021/07/01 06:06:36;;;;;;;6.45;3.78;;;12.50;98.00;;;;;;5053451;28;20025;-85
2021/07/01 06:09:05;;;;;;;5.25;3.00;;;12.60;98.00;;;;;;5055526;28;20044;-84
2021/07/01 06:11:32;;;;;;;7.03;3.20;;;12.60;98.00;;;;;;5053957;28;20048;-85
2021/07/01 06:13:58;;;;;;;5.78;2.90;;;12.50;98.00;;;;;;5054639;28;20048;-85
2021/07/01 06:16:26;;;;;;;4.55;2.65;;;12.40;98.00;;;;;;5053974;28;20048;-84
2021/07/01 06:18:53;;;;;;;5.15;3.00;;;12.50;98.00;;;;;;5043878;28;20025;-85
2021/07/01 06:21:20;;;;;;;6.20;2.50;;;12.50;98.00;;;;;;5052772;28;20037;-84
2021/07/01 06:23:47;;;;;;;4.22;2.63;;;12.50;98.00;;;;;;5053143;28;20029;-85
2021/07/01 06:26:15;;;;;;;5.13;2.80;;;12.50;98.00;;;;;;5053847;28;20052;-84
2021/07/01 06:28:42;;;;;;;6.05;3.30;;;12.40;98.00;;;;;;5054023;28;20032;-83
2021/07/01 06:31:09;;;;;;;6.00;3.47;;;12.40;98.00;;;;;;5054364;28;20028;-85
2021/07/01 06:33:39;;;;;;;5.85;3.40;;;12.30;98.00;;;;;;5053595;28;20418;-84
2021/07/01 06:36:07;;;;;;;6.07;3.92;;;12.30;98.00;;;;;;5053491;28;20116;-85
2021/07/01 06:38:35;;;;;;;6.28;4.00;;;12.30;98.00;;;;;;5045244;28;20041;-85
2021/07/01 06:41:02;;;;;;;6.88;4.00;;;12.30;98.00;;;;;;5035210;28;20037;-84
2021/07/01 06:43:28;;;;;;;6.60;3.70;;;12.30;98.00;;;;;;5039303;28;20447;-84
2021/07/01 06:45:56;;;;;;;6.80;4.45;;;12.30;98.00;;;;;;5047913;28;20124;-84
2021/07/01 06:48:23;;;;;;;7.20;4.57;;;12.30;98.00;;;;;;5053990;28;20111;-85
2021/07/01 06:50:53;;;;;;;6.07;4.28;;;12.30;98.00;;;;;;5037468;28;20100;-85
2021/07/01 06:53:21;;;;;;;6.38;4.25;;;12.30;98.00;;;;;;5033590;28;20022;-84
2021/07/01 06:55:48;;;;;;;6.75;4.40;;;12.30;98.00;;;;;;5050438;28;20029;-84
2021/07/01 06:58:14;;;;;;;7.53;4.95;;;12.30;98.00;;;;;;5053248;28;20028;-85
2021/07/01 07:00:40;;;;;;;6.68;4.40;;;12.30;98.00;;;;;;5048000;28;20025;-84
2021/07/01 07:03:06;;;;;;;10.13;4.88;;;12.30;98.00;;;;;;5054992;28;20047;-84
2021/07/01 07:05:32;;;;;;;7.63;5.63;;;12.30;98.00;;;;;;5042338;28;20033;-85
2021/07/01 07:07:58;;;;;;;9.00;5.80;;;12.30;98.00;;;;;;5054789;28;20302;-85
2021/07/01 07:10:24;;;;;;;6.88;4.30;;;12.40;98.00;;;;;;5050304;28;20326;-85
2021/07/01 07:12:54;;;;;;;7.28;4.18;;;12.40;98.00;;;;;;5034637;28;20026;-85
2021/07/01 07:15:27;;;;;;;7.70;4.80;;;12.60;98.00;;;;;;5036214;28;20018;-85
2021/07/01 07:18:20;;;;;;;7.00;4.60;;;12.80;98.00;;;;;;5054560;28;20028;-85
2021/07/01 07:20:51;;;;;;;6.88;3.35;;;13.00;98.00;;;;;;5050042;28;20061;-84
2021/07/01 07:23:19;;;;;;;7.00;4.38;;;13.30;98.00;;;;;;5041542;28;20414;-84
2021/07/01 07:25:47;;;;;;;9.02;4.47;;;13.50;98.00;;;;;;5034575;28;20029;-85
2021/07/01 07:28:16;;;;;;;6.70;4.10;;;13.50;98.00;;;;;;5034822;28;20079;-85
2021/07/01 07:30:42;;;;;;;6.45;4.15;;;13.80;97.80;;;;;;5053679;28;20033;-84
2021/07/01 07:33:10;;;;;;;8.68;4.50;;;14.00;97.00;;;;;;5052635;28;20037;-85
2021/07/01 07:35:36;;;;;;;7.38;4.72;;;13.90;97.30;;;;;;5055294;28;20083;-85
2021/07/01 07:38:07;;;;;;;8.63;4.05;;;14.20;97.00;;;;;;5042832;28;20017;-83
2021/07/01 07:40:37;;;;;;;8.23;4.80;;;14.20;96.80;;;;;;5037827;28;20025;-84
2021/07/01 07:43:04;;;;;;;7.15;4.40;;;14.10;96.60;;;;;;5052536;28;20056;-84
2021/07/01 07:45:31;;;;;;;7.50;4.68;;;13.90;96.80;;;;;;5057169;28;20325;-84
2021/07/01 07:47:56;;;;;;;7.15;4.68;;;13.90;96.90;;;;;;5057449;28;20024;-84
2021/07/01 07:50:22;;;;;;;8.73;4.88;;;13.90;96.80;;;;;;5056203;28;20055;-85
2021/07/01 07:52:50;;;;;;;7.97;4.68;;;14.00;96.60;;;;;;5056304;28;20108;-84
2021/07/01 07:55:19;;;;;;;8.82;5.20;;;14.10;96.90;;;;;;5057786;28;20033;-85
2021/07/01 07:57:50;;;;;;;12.75;5.28;;;14.00;96.60;;;;;;5057021;28;20022;-85
2021/07/01 08:00:17;;;;;;;7.75;5.15;;;14.30;96.80;;;;;;5057975;28;20024;-85
2021/07/01 08:02:49;;;;;;;7.68;4.47;;;14.30;96.30;;;;;;5045283;28;20079;-85
2021/07/01 08:05:22;;;;;;;5.97;4.05;;;14.30;96.50;;;;;;5039635;28;20112;-85
2021/07/01 08:07:50;;;;;;;7.22;4.13;;;14.40;96.20;;;;;;5037810;28;20030;-84
2021/07/01 08:10:18;;;;;;;9.38;5.43;;;14.40;96.10;;;;;;5038180;28;20036;-85
2021/07/01 08:12:48;;;;;;;7.47;4.75;;;14.40;96.20;;;;;;5042345;28;20303;-84
2021/07/01 08:15:20;;;;;;;7.38;4.75;;;14.20;96.40;;;;;;5040032;28;20079;-83
2021/07/01 08:17:52;;;;;;;8.45;5.43;;;14.10;96.10;;;;;;5056515;28;20032;-84
2021/07/01 08:20:20;;;;;;;9.73;4.63;;;14.10;96.50;;;;;;5047267;28;20022;-84
2021/07/01 08:22:48;;;;;;;9.55;5.50;;;14.00;96.40;;;;;;5037546;28;20415;-83
2021/07/01 08:25:15;;;;;;;9.52;5.10;;;14.00;96.50;;;;;;5043152;28;20071;-84
2021/07/01 08:27:42;;;;;;;7.30;4.95;;;14.00;96.60;;;;;;5040012;28;20187;-84
2021/07/01 08:30:08;;;;;;;11.50;5.35;;;14.00;96.80;;;;;;5053349;28;20074;-84
2021/07/01 08:32:36;;;;;;;7.95;4.90;;;14.00;96.60;;;;;;5037052;28;20087;-83
2021/07/01 08:35:02;;;;;;;7.47;4.50;;;14.10;96.90;;;;;;5036224;28;20025;-85
2021/07/01 08:37:32;;;;;;;7.85;4.47;;;14.00;96.70;;;;;;5035709;28;20048;-84
2021/07/01 08:40:06;;;;;;;8.68;5.00;;;14.00;96.80;;;;;;5037102;28;20036;-84
2021/07/01 08:42:36;;;;;;;10.32;5.22;;;14.00;96.70;;;;;;5036616;28;20422;-84
2021/07/01 08:45:07;;;;;;;7.18;4.57;;;14.10;96.60;;;;;;5040158;28;20041;-84
2021/07/01 08:47:35;;;;;;;9.77;5.45;;;14.20;96.90;;;;;;5054424;28;20443;-85
2021/07/01 08:50:11;;;;;;;7.25;5.07;;;14.20;96.50;;;;;;5054856;28;20029;-85
2021/07/01 08:52:47;;;;;;;8.23;5.38;;;14.20;96.60;;;;;;5056377;28;20025;-84
2021/07/01 08:55:19;;;;;;;9.20;4.75;;;14.20;96.70;;;;;;5055561;28;20040;-84
2021/07/01 08:57:49;;;;;;;9.73;5.05;;;14.20;96.60;;;;;;5043571;28;20033;-84
2021/07/01 09:00:20;;;;;;;9.77;5.72;;;14.30;96.40;;;;;;5041113;28;20039;-84
2021/07/01 09:03:05;;;;;;;7.80;4.82;;;14.40;96.70;;;;;;5054567;28;20029;-84
2021/07/01 09:05:38;;;;;;;6.85;4.38;;;14.70;96.40;;;;;;5054560;28;20037;-85
2021/07/01 09:08:12;;;;;;;17.47;5.43;;;14.80;95.80;;;;;;5056647;28;20110;-85
2021/07/01 09:11:01;;;;;;;5.82;3.88;;;14.70;95.80;;;;;;5055954;28;20024;-84
2021/07/01 09:13:30;;;;;;;7.63;4.40;;;14.70;95.80;;;;;;5055865;28;20118;-84
2021/07/01 09:15:58;;;;;;;7.72;4.70;;;14.60;95.60;;;;;;5056259;28;20032;-84
2021/07/01 09:18:26;;;;;;;7.43;4.72;;;14.60;95.70;;;;;;5054112;28;20032;-84
2021/07/01 09:20:55;;;;;;;8.57;4.60;;;14.80;95.90;;;;;;5055134;28;20052;-85
2021/07/01 09:23:22;;;;;;;6.45;4.25;;;15.10;95.70;;;;;;5055980;28;20221;-84
2021/07/01 09:25:51;;;;;;;6.22;4.32;;;15.50;95.30;;;;;;5055136;28;20448;-85
2021/07/01 09:28:17;;;;;;;7.30;4.57;;;15.80;94.30;;;;;;5055094;28;20108;-84
2021/07/01 09:30:43;;;;;;;6.35;4.22;;;15.70;94.20;;;;;;5054506;28;20032;-84
2021/07/01 09:33:09;;;;;;;5.88;4.22;;;15.40;94.80;;;;;;5056247;28;20017;-85
2021/07/01 09:35:36;;;;;;;7.35;4.70;;;14.90;94.90;;;;;;5053324;28;20410;-83
2021/07/01 09:38:05;;;;;;;8.80;5.03;;;14.50;95.00;;;;;;5055995;28;20048;-84
2021/07/01 09:40:36;;;;;;;7.05;4.80;;;14.20;96.00;;;;;;5055431;28;20024;-84
2021/07/01 09:43:04;;;;;;;8.65;5.28;;;14.00;96.10;;;;;;5054767;28;20052;-84
2021/07/01 09:45:32;;;;;;;7.72;4.57;;;13.90;96.60;;;;;;5055114;28;20037;-84
2021/07/01 09:48:06;;;;;;;7.95;4.80;;;13.80;96.50;;;;;;5055749;28;20032;-84
2021/07/01 09:50:35;;;;;;;7.35;5.03;;;13.80;96.80;;;;;;5052940;28;20057;-84
2021/07/01 09:53:02;;;;;;;7.88;4.00;;;13.70;96.70;;;;;;5054790;28;20051;-84
2021/07/01 09:55:29;;;;;;;7.82;3.28;;;13.50;96.80;;;;;;5053721;28;20025;-85
2021/07/01 09:57:59;;;;;;;5.65;2.90;;;12.90;97.00;;;;;;5054511;28;20021;-84
2021/07/01 10:00:28;;;;;;;5.13;2.50;;;12.50;97.90;;;;;;5055078;28;20025;-83
2021/07/01 10:03:11;;;;;;;6.05;3.30;;;12.20;98.00;;;;;;5055519;28;20025;-83
2021/07/01 10:05:38;;;;;;;5.10;2.75;;;12.10;98.00;;;;;;5053697;28;20025;-84
2021/07/01 10:08:05;;;;;;;5.68;2.75;;;12.00;98.00;;;;;;5055301;28;20059;-84
2021/07/01 10:10:45;;;;;;;7.10;3.58;;;12.00;98.00;;;;;;5053905;28;20218;-85
2021/07/01 10:13:12;;;;;;;5.45;3.03;;;12.10;98.00;;;;;;5035500;28;20026;-84
2021/07/01 10:15:39;;;;;;;5.65;3.50;;;12.10;98.00;;;;;;5033821;28;20021;-84
2021/07/01 10:18:12;;;;;;;5.97;2.50;;;12.20;98.00;;;;;;5034411;28;20021;-85
2021/07/01 10:20:50;;;;;;;5.40;2.38;;;12.30;98.00;;;;;;5033410;28;20471;-85
2021/07/01 10:23:27;;;;;;;4.68;2.42;;;12.30;98.00;;;;;;5035228;28;20021;-84
2021/07/01 10:26:08;;;;;;;4.95;3.08;;;12.20;98.00;;;;;;5035165;28;20112;-85
2021/07/01 10:28:34;;;;;;;6.93;4.32;;;12.20;98.00;;;;;;5041808;28;20019;-84
2021/07/01 10:31:02;;;;;;;5.25;3.00;;;12.40;98.00;;;;;;5054980;28;20035;-84
2021/07/01 10:33:31;;;;;;;6.78;3.55;;;12.50;98.00;;;;;;5054515;28;20035;-85
2021/07/01 10:36:00;;;;;;;5.22;2.90;;;12.70;98.00;;;;;;5053692;28;20338;-84
2021/07/01 10:38:26;;;;;;;6.90;3.33;;;13.10;98.00;;;;;;5054294;28;20028;-85
2021/07/01 10:40:57;;;;;;;6.63;3.63;;;13.50;98.00;;;;;;5053896;28;20107;-86
2021/07/01 10:43:44;;;;;;;5.75;3.20;;;14.10;98.00;;;;;;5053029;28;20301;-84
2021/07/01 10:46:12;;;;;;;5.90;3.42;;;14.90;96.20;;;;;;5053705;28;20029;-85
2021/07/01 10:48:39;;;;;;;5.97;3.35;;;15.70;95.00;;;;;;5054324;28;20176;-85
2021/07/01 10:51:12;;;;;;;6.05;4.10;;;16.50;95.10;;;;;;5053509;28;20021;-85
2021/07/01 10:53:47;;;;;;;8.25;4.32;;;17.50;92.60;;;;;;5054146;28;20017;-85
2021/07/01 10:56:18;;;;;;;5.88;2.80;;;18.60;90.10;;;;;;5054573;28;20021;-85
2021/07/01 10:58:44;;;;;;;5.75;3.20;;;18.60;87.40;;;;;;5052651;28;20021;-85
2021/07/01 11:01:22;;;;;;;6.90;3.40;;;18.30;88.10;;;;;;5053704;28;20463;-85
2021/07/01 11:04:06;;;;;;;6.32;3.67;;;17.80;89.20;;;;;;5054758;28;20043;-85
2021/07/01 11:06:32;;;;;;;7.07;3.85;;;17.30;89.90;;;;;;5053768;28;20025;-85
2021/07/01 11:08:58;;;;;;;6.65;3.80;;;16.80;90.70;;;;;;5054161;28;20090;-85
2021/07/01 11:11:31;;;;;;;7.25;3.85;;;16.50;92.70;;;;;;5053109;28;20021;-86
2021/07/01 11:13:59;;;;;;;5.95;3.28;;;16.50;91.80;;;;;;5051190;28;20023;-86
2021/07/01 11:16:43;;;;;;;6.38;2.97;;;16.60;91.80;;;;;;5053972;28;20032;-85
2021/07/01 11:19:12;;;;;;;4.70;2.90;;;16.50;92.30;;;;;;5041323;28;20773;-85
2021/07/01 11:21:50;;;;;;;5.53;3.42;;;16.40;91.30;;;;;;5050293;28;20029;-86
2021/07/01 11:24:21;;;;;;;5.97;3.40;;;16.40;91.70;;;;;;5053229;28;20132;-86
2021/07/01 11:26:57;;;;;;;6.40;3.22;;;16.30;92.40;;;;;;5047712;28;20074;-85
2021/07/01 11:29:39;;;;;;;6.38;3.55;;;16.20;93.20;;;;;;5052018;28;20365;-85
2021/07/01 11:32:27;;;;;;;6.82;3.17;;;16.00;93.90;;;;;;5053635;28;20037;-86
2021/07/01 11:34:57;;;;;;;4.45;2.80;;;16.10;93.80;;;;;;5052116;28;20029;-85
2021/07/01 11:37:33;;;;;;;6.13;3.67;;;16.00;93.50;;;;;;5053184;28;20025;-85
2021/07/01 11:40:12;;;;;;;6.20;3.65;;;15.60;94.30;;;;;;5054096;28;20029;-85
2021/07/01 11:42:39;;;;;;;5.53;3.47;;;15.20;95.00;;;;;;5049745;28;20053;-84
2021/07/01 11:45:06;;;;;;;6.50;3.80;;;14.90;96.00;;;;;;5052655;28;20041;-85
2021/07/01 11:47:33;;;;;;;7.85;3.58;;;14.50;95.70;;;;;;5042373;28;20043;-85
2021/07/01 11:50:00;;;;;;;5.97;3.80;;;14.40;96.40;;;;;;5052005;28;20402;-85
2021/07/01 11:52:31;;;;;;;5.93;3.95;;;14.30;96.50;;;;;;5053555;28;20025;-85
2021/07/01 11:54:57;;;;;;;8.00;4.20;;;14.30;96.80;;;;;;5049451;28;20155;-87
2021/07/01 11:57:26;;;;;;;7.93;4.10;;;14.20;96.90;;;;;;5053766;28;20032;-86
2021/07/01 11:59:52;;;;;;;7.60;4.22;;;14.20;97.20;;;;;;5035479;28;20079;-86
2021/07/01 12:02:19;;;;;;;6.32;4.00;;;14.20;97.20;;;;;;5049298;28;20040;-86
2021/07/01 12:04:45;;;;;;;9.18;4.63;;;14.20;97.20;;;;;;5066455;28;20317;-86
2021/07/01 12:07:30;;;;;;;9.38;3.83;;;14.20;96.70;;;;;;5063324;28;20549;-86
2021/07/01 12:09:57;;;;;;;6.07;3.97;;;14.20;96.80;;;;;;5054078;28;20049;-85
2021/07/01 12:12:32;;;;;;;6.13;4.03;;;14.20;97.00;;;;;;5052449;28;20055;-86
2021/07/01 12:15:12;;;;;;;6.97;4.50;;;14.10;97.10;;;;;;5044528;28;20023;-85
2021/07/01 12:18:01;;;;;;;7.43;4.85;;;14.00;97.40;;;;;;5068809;28;20028;-85
2021/07/01 12:20:31;;;;;;;7.00;4.68;;;14.00;97.70;;;;;;5048632;28;20021;-84
2021/07/01 12:22:59;;;;;;;9.35;5.22;;;13.80;97.70;;;;;;5037012;28;20021;-85
2021/07/01 12:25:25;;;;;;;7.55;4.95;;;13.80;98.00;;;;;;5050257;28;20321;-84
2021/07/01 12:30:57;;;;;;;8.85;4.88;;;13.60;98.00;;;;;;5053468;28;20444;-85
2021/07/01 12:33:49;;;;;;;6.78;4.32;;;13.50;98.00;;;;;;5050114;28;20021;-84
2021/07/01 12:36:27;;;;;;;13.10;6.35;;;13.50;97.50;;;;;;5047821;28;20291;-84
2021/07/01 12:39:05;;;;;;;8.23;4.70;;;13.40;97.70;;;;;;5036684;28;20417;-85
2021/07/01 12:41:41;;;;;;;7.80;4.68;;;13.30;97.60;;;;;;5045452;28;20041;-84
2021/07/01 12:44:18;;;;;;;9.50;5.10;;;13.30;98.00;;;;;;5055813;28;20041;-85
2021/07/01 12:46:47;;;;;;;7.10;4.43;;;13.30;98.00;;;;;;5044997;28;20040;-86
2021/07/01 12:49:21;;;;;;;7.13;4.60;;;13.30;98.00;;;;;;5035235;28;20556;-85
2021/07/01 12:51:47;;;;;;;7.10;4.45;;;13.40;98.00;;;;;;5046251;28;20538;-86
2021/07/01 12:54:33;;;;;;;7.50;4.07;;;13.50;98.00;;;;;;5055229;28;20318;-85
2021/07/01 12:57:01;;;;;;;6.72;4.05;;;13.60;97.70;;;;;;5048743;28;20037;-85